Terminal Aerodrome Forecast
Issued by NWS

Home | Current Version | Previous Version | Graphics & Text | Print | Product List | Glossary On
Versions: 1 2 3 4 5 6 7 8 9 10 11 12 13 14 15 16 17 18 19 20 21 22 23 24 25
871
FTUS43 KLOT 111507 AAA
TAFORD
TAF AMD
KORD 111507Z 1115/1218 34010KT P6SM FEW030
     FM112000 29008KT P6SM FEW030
     FM120200 25007KT P6SM BKN090
     FM120700 25007KT P6SM -SN BKN020
     FM121500 28011KT P6SM BKN040=

USA.gov is the U.S. government's official web portal to all federal, state and local government web resources and services.